createdAt,value
2023-04-20T00:01:46.619Z,19.90
2023-04-20T00:04:16.445Z,19.00
2023-04-20T00:06:43.505Z,21.40
2023-04-20T00:09:11.565Z,18.20
2023-04-20T00:11:38.442Z,19.50
2023-04-20T00:14:05.345Z,19.10
2023-04-20T00:16:32.184Z,20.40
2023-04-20T00:18:59.396Z,19.30
2023-04-20T00:21:26.551Z,21.00
2023-04-20T00:23:53.177Z,19.40
2023-04-20T00:26:20.579Z,19.70
2023-04-20T00:28:47.121Z,19.70
2023-04-20T00:31:13.703Z,19.00
2023-04-20T00:33:40.222Z,19.50
2023-04-20T00:36:06.948Z,19.20
2023-04-20T00:38:33.605Z,19.90
2023-04-20T00:41:00.223Z,20.10
2023-04-20T00:43:26.711Z,21.20
2023-04-20T00:45:53.353Z,19.50
2023-04-20T00:48:20.136Z,18.80
2023-04-20T00:50:48.167Z,19.10
2023-04-20T00:53:15.000Z,19.40
2023-04-20T00:55:42.760Z,19.70
2023-04-20T00:58:11.240Z,19.20
2023-04-20T01:00:40.133Z,19.80
2023-04-20T01:03:07.137Z,18.90
2023-04-20T01:05:34.525Z,18.70
2023-04-20T01:08:01.322Z,19.00
2023-04-20T01:10:27.892Z,19.80
2023-04-20T01:12:56.911Z,19.60
2023-04-20T01:15:23.600Z,21.20
2023-04-20T01:17:51.656Z,19.30
2023-04-20T01:20:19.752Z,19.20
2023-04-20T01:22:47.199Z,18.10
2023-04-20T01:25:14.130Z,19.60
2023-04-20T01:27:40.674Z,17.70
2023-04-20T01:30:07.878Z,18.30
2023-04-20T01:32:34.510Z,18.40
2023-04-20T01:35:04.722Z,19.60
2023-04-20T01:37:31.285Z,18.40
2023-04-20T01:39:58.048Z,18.40
2023-04-20T01:42:24.779Z,19.40
2023-04-20T01:44:51.261Z,18.80
2023-04-20T01:47:18.133Z,18.20
2023-04-20T01:49:44.792Z,18.50
2023-04-20T01:52:11.344Z,17.80
2023-04-20T01:54:37.978Z,18.00
2023-04-20T01:57:04.589Z,18.20
2023-04-20T01:59:31.095Z,17.90
2023-04-20T02:01:57.739Z,18.10
2023-04-20T02:04:24.361Z,18.40
2023-04-20T02:06:51.323Z,18.10
2023-04-20T02:09:18.010Z,18.10
2023-04-20T02:11:44.658Z,17.60
2023-04-20T02:14:11.311Z,17.30
2023-04-20T02:16:37.874Z,17.10
2023-04-20T02:19:04.494Z,17.20
2023-04-20T02:21:30.989Z,17.50
2023-04-20T02:23:57.555Z,17.90
2023-04-20T02:26:24.079Z,17.90
2023-04-20T02:28:51.375Z,17.70
2023-04-20T02:31:18.569Z,17.90
2023-04-20T02:33:47.079Z,16.90
2023-04-20T02:36:13.649Z,17.80
2023-04-20T02:38:40.176Z,18.50
2023-04-20T02:41:09.114Z,17.50
2023-04-20T02:43:41.260Z,18.20
2023-04-20T02:46:07.858Z,17.90
2023-04-20T02:48:34.576Z,17.80
2023-04-20T02:51:01.410Z,18.40
2023-04-20T02:53:28.153Z,19.20
2023-04-20T02:55:54.751Z,17.60
2023-04-20T02:58:21.291Z,17.60
2023-04-20T03:00:47.937Z,18.10
2023-04-20T03:03:14.586Z,19.20
2023-04-20T03:05:41.223Z,18.20
2023-04-20T03:08:07.720Z,19.20
2023-04-20T03:10:34.364Z,19.70
2023-04-20T03:13:00.918Z,19.50
2023-04-20T03:15:27.756Z,19.70
2023-04-20T03:17:54.513Z,19.90
2023-04-20T03:20:21.225Z,19.30
2023-04-20T03:22:47.704Z,19.50
2023-04-20T03:25:14.384Z,18.00
2023-04-20T03:27:40.968Z,18.80
2023-04-20T03:30:07.913Z,19.40
2023-04-20T03:32:34.787Z,20.60
2023-04-20T03:35:01.426Z,18.70
2023-04-20T03:37:28.022Z,21.80
2023-04-20T03:39:54.555Z,22.80
2023-04-20T03:42:20.992Z,24.90
2023-04-20T03:44:47.699Z,23.60
2023-04-20T03:47:14.640Z,21.50
2023-04-20T03:49:41.150Z,21.60
2023-04-20T03:52:07.637Z,22.20
2023-04-20T03:54:34.203Z,24.50
2023-04-20T03:57:21.012Z,25.30
2023-04-20T03:59:47.541Z,25.30
2023-04-20T04:02:15.179Z,24.10
2023-04-20T04:04:42.100Z,22.70
2023-04-20T04:07:08.741Z,23.30
2023-04-20T04:09:35.644Z,22.70
2023-04-20T04:12:06.155Z,24.10
2023-04-20T04:14:38.907Z,22.50
2023-04-20T04:17:08.465Z,21.70
2023-04-20T04:19:38.185Z,22.10
2023-04-20T04:22:05.023Z,21.30
2023-04-20T04:24:32.709Z,23.00
2023-04-20T04:27:01.613Z,20.70
2023-04-20T04:29:28.176Z,21.20
2023-04-20T04:31:54.829Z,21.10
2023-04-20T04:34:23.371Z,22.20
2023-04-20T04:36:49.819Z,22.10
2023-04-20T04:39:16.478Z,21.90
2023-04-20T04:41:43.119Z,21.70
2023-04-20T04:44:10.523Z,22.50
2023-04-20T04:46:37.145Z,20.80
2023-04-20T04:49:03.719Z,22.40
2023-04-20T04:51:31.078Z,21.60
2023-04-20T04:53:57.651Z,21.50
2023-04-20T04:56:24.444Z,22.10
2023-04-20T04:58:51.014Z,23.10
2023-04-20T05:01:17.632Z,22.30
2023-04-20T05:03:44.290Z,22.60
2023-04-20T05:06:10.930Z,23.30
2023-04-20T05:08:37.542Z,22.40
2023-04-20T05:11:04.002Z,23.20
2023-04-20T05:13:30.597Z,23.60
2023-04-20T05:15:57.063Z,23.20
2023-04-20T05:18:23.672Z,24.30
2023-04-20T05:20:50.169Z,22.60
2023-04-20T05:23:16.801Z,22.50
2023-04-20T05:25:43.864Z,21.10
2023-04-20T05:28:10.544Z,21.50
2023-04-20T05:30:37.031Z,22.70
2023-04-20T05:33:03.941Z,22.70
2023-04-20T05:35:30.508Z,23.30
2023-04-20T05:37:59.726Z,22.90
2023-04-20T05:40:26.373Z,22.50
2023-04-20T05:42:52.837Z,21.00
2023-04-20T05:45:19.390Z,22.20
2023-04-20T05:47:53.117Z,21.70
2023-04-20T05:50:19.671Z,21.20
2023-04-20T05:52:46.246Z,21.30
2023-04-20T05:55:12.779Z,22.00
2023-04-20T05:57:42.203Z,21.60
2023-04-20T06:00:10.607Z,22.10
2023-04-20T06:02:37.351Z,20.80
2023-04-20T06:05:04.641Z,22.10
2023-04-20T06:07:31.279Z,22.10
2023-04-20T06:10:00.180Z,20.60
2023-04-20T06:12:27.192Z,21.20
2023-04-20T06:14:53.612Z,21.60
2023-04-20T06:17:20.216Z,20.40
2023-04-20T06:19:46.861Z,21.10
2023-04-20T06:22:13.860Z,21.50
2023-04-20T06:24:41.668Z,21.80
2023-04-20T06:27:08.659Z,22.60
2023-04-20T06:29:35.273Z,21.20
2023-04-20T06:32:01.863Z,23.80
2023-04-20T06:34:28.720Z,23.90
2023-04-20T06:36:55.493Z,22.10
2023-04-20T06:39:22.069Z,20.90
2023-04-20T06:41:48.554Z,20.20
2023-04-20T06:44:15.217Z,20.90
2023-04-20T06:46:41.785Z,19.80
2023-04-20T06:49:08.357Z,19.50
2023-04-20T06:51:34.793Z,20.30
2023-04-20T06:54:01.490Z,20.20
2023-04-20T06:56:28.046Z,18.90
2023-04-20T06:58:54.618Z,18.80
2023-04-20T07:01:21.308Z,19.70
2023-04-20T07:03:48.078Z,18.30
2023-04-20T07:06:16.325Z,17.80
2023-04-20T07:08:42.760Z,17.30
2023-04-20T07:11:09.248Z,18.20
2023-04-20T07:13:35.746Z,19.10
2023-04-20T07:16:02.381Z,15.90
2023-04-20T07:18:28.936Z,17.80
2023-04-20T07:20:55.607Z,15.90
2023-04-20T07:23:22.144Z,16.40
2023-04-20T07:25:48.658Z,15.90
2023-04-20T07:28:15.162Z,14.50
2023-04-20T07:30:41.546Z,14.60
2023-04-20T07:33:08.642Z,14.90
2023-04-20T07:35:35.263Z,13.30
2023-04-20T07:38:02.072Z,12.80
2023-04-20T07:40:28.519Z,12.90
2023-04-20T07:42:55.156Z,11.60
2023-04-20T07:45:22.352Z,11.00
2023-04-20T07:47:50.715Z,11.10
2023-04-20T07:50:17.436Z,11.10
2023-04-20T07:52:43.916Z,11.10
2023-04-20T07:55:13.759Z,11.70
2023-04-20T07:57:41.836Z,10.50
2023-04-20T08:00:09.311Z,10.20
2023-04-20T08:02:35.961Z,8.50
2023-04-20T08:07:29.716Z,8.30
2023-04-20T08:09:56.497Z,7.70
2023-04-20T08:12:23.117Z,8.60
2023-04-20T08:14:49.693Z,7.40
2023-04-20T08:17:16.163Z,6.50
2023-04-20T08:19:44.987Z,7.80
2023-04-20T08:22:12.687Z,6.60
2023-04-20T08:24:39.256Z,7.00
2023-04-20T08:27:07.633Z,7.40
2023-04-20T08:29:34.555Z,7.00
2023-04-20T08:32:01.295Z,6.70
2023-04-20T08:34:28.117Z,6.60
2023-04-20T08:36:54.914Z,7.30
2023-04-20T08:39:23.430Z,6.70
2023-04-20T08:41:53.170Z,7.10
2023-04-20T08:44:19.930Z,6.40
2023-04-20T08:46:47.463Z,6.30
2023-04-20T08:49:17.606Z,7.00
2023-04-20T08:51:44.772Z,7.60
2023-04-20T08:54:11.758Z,7.40
2023-04-20T08:56:39.330Z,7.20
2023-04-20T08:59:09.392Z,7.40
2023-04-20T09:01:40.832Z,7.10
2023-04-20T09:04:24.449Z,6.70
2023-04-20T09:06:52.643Z,6.70
2023-04-20T09:09:20.146Z,6.60
2023-04-20T09:11:47.047Z,6.80
2023-04-20T09:14:15.607Z,6.10
2023-04-20T09:16:52.243Z,6.10
2023-04-20T09:19:23.033Z,6.70
2023-04-20T09:21:50.336Z,7.30
2023-04-20T09:24:19.977Z,6.30
2023-04-20T09:26:46.636Z,7.60
2023-04-20T09:29:17.133Z,6.90
2023-04-20T09:31:43.747Z,6.50
2023-04-20T09:34:10.479Z,7.20
2023-04-20T09:36:41.389Z,6.10
2023-04-20T09:39:09.146Z,6.70
2023-04-20T09:41:36.319Z,6.20
2023-04-20T09:44:03.390Z,6.20
2023-04-20T09:46:33.269Z,6.10
2023-04-20T09:49:00.955Z,6.10
2023-04-20T09:51:27.522Z,6.10
2023-04-20T09:53:58.816Z,6.10
2023-04-20T09:56:25.954Z,5.20
2023-04-20T09:58:53.101Z,5.20
2023-04-20T10:01:20.437Z,4.90
2023-04-20T10:03:47.972Z,5.60
2023-04-20T10:06:27.115Z,4.60
2023-04-20T10:08:53.985Z,5.00
2023-04-20T10:11:31.421Z,4.80
2023-04-20T10:14:18.924Z,5.40
2023-04-20T10:16:46.536Z,4.40
2023-04-20T10:19:13.177Z,4.40
2023-04-20T10:21:46.732Z,4.70
2023-04-20T10:24:13.332Z,5.20
2023-04-20T10:26:41.175Z,4.40
2023-04-20T10:29:07.856Z,4.60
2023-04-20T10:31:43.124Z,4.70
2023-04-20T10:34:09.602Z,4.50
2023-04-20T10:36:36.903Z,4.90
2023-04-20T10:39:18.650Z,4.80
2023-04-20T10:41:53.696Z,5.00
2023-04-20T10:44:20.877Z,4.50
2023-04-20T10:46:48.781Z,4.30
2023-04-20T10:49:16.323Z,4.50
2023-04-20T10:51:50.147Z,5.00
2023-04-20T10:54:18.319Z,4.50
2023-04-20T10:56:48.660Z,4.50
2023-04-20T10:59:16.364Z,4.20
2023-04-20T11:01:43.823Z,5.10
2023-04-20T11:04:16.999Z,4.50
2023-04-20T11:06:48.109Z,4.80
2023-04-20T11:09:21.064Z,5.20
2023-04-20T11:12:09.783Z,5.10
2023-04-20T11:14:37.757Z,5.60
2023-04-20T11:17:04.847Z,5.00
2023-04-20T11:19:32.586Z,4.30
2023-04-20T11:22:00.145Z,4.40
2023-04-20T11:24:27.826Z,5.60
2023-04-20T11:26:55.340Z,5.50
2023-04-20T11:29:29.268Z,4.60
2023-04-20T11:31:56.111Z,5.40
2023-04-20T11:34:25.764Z,4.60
2023-04-20T11:36:53.896Z,6.50
2023-04-20T11:39:27.824Z,4.50
2023-04-20T11:41:55.869Z,4.90
2023-04-20T11:44:23.108Z,4.20
2023-04-20T11:46:49.761Z,4.50
2023-04-20T11:49:16.672Z,4.20
2023-04-20T11:51:44.034Z,4.40
2023-04-20T11:54:11.172Z,4.80
2023-04-20T11:56:38.042Z,4.70
2023-04-20T11:59:04.855Z,4.10
2023-04-20T12:01:32.414Z,4.20
2023-04-20T12:04:01.294Z,4.50
2023-04-20T12:06:28.416Z,4.00
2023-04-20T12:08:55.745Z,3.00
2023-04-20T12:11:22.458Z,3.80
2023-04-20T12:13:49.251Z,4.20
2023-04-20T12:16:15.906Z,4.50
2023-04-20T12:18:42.576Z,4.70
2023-04-20T12:21:09.095Z,4.60
2023-04-20T12:23:38.312Z,4.60
2023-04-20T12:26:05.229Z,4.60
2023-04-20T12:28:32.481Z,4.60
2023-04-20T12:30:59.130Z,4.20
2023-04-20T12:33:25.601Z,4.00
2023-04-20T12:35:52.239Z,4.10
2023-04-20T12:38:18.911Z,4.90
2023-04-20T12:40:45.640Z,4.30
2023-04-20T12:43:12.220Z,4.10
2023-04-20T12:45:39.137Z,3.50
2023-04-20T12:48:05.936Z,3.90
2023-04-20T12:50:32.570Z,4.00
2023-04-20T12:52:59.130Z,4.20
2023-04-20T12:55:25.750Z,3.40
2023-04-20T12:57:52.502Z,3.30
2023-04-20T13:00:19.352Z,2.80
2023-04-20T13:02:46.195Z,4.00
2023-04-20T13:05:12.813Z,3.00
2023-04-20T13:07:39.532Z,3.20
2023-04-20T13:10:06.233Z,3.90
2023-04-20T13:12:32.777Z,3.60
2023-04-20T13:14:59.316Z,3.00
2023-04-20T13:17:25.825Z,3.30
2023-04-20T13:19:52.400Z,3.50
2023-04-20T13:22:19.196Z,3.70
2023-04-20T13:24:45.903Z,3.90
2023-04-20T13:27:13.513Z,3.20
2023-04-20T13:29:40.785Z,3.40
2023-04-20T13:32:07.473Z,3.10
2023-04-20T13:34:34.094Z,2.30
2023-04-20T13:37:00.803Z,3.00
2023-04-20T13:39:27.417Z,3.10
2023-04-20T13:41:53.979Z,3.20
2023-04-20T13:44:20.695Z,3.60
2023-04-20T13:46:47.653Z,3.60
2023-04-20T13:49:16.164Z,3.20
2023-04-20T13:51:42.700Z,3.30
2023-04-20T13:54:09.317Z,3.70
2023-04-20T13:56:35.912Z,3.20
2023-04-20T13:59:03.419Z,3.40
2023-04-20T14:01:30.748Z,3.10
2023-04-20T14:03:57.435Z,3.70
2023-04-20T14:06:24.397Z,3.30
2023-04-20T14:08:51.215Z,2.90
2023-04-20T14:11:17.975Z,2.90
2023-04-20T14:13:44.952Z,2.90
2023-04-20T14:16:13.215Z,3.50
2023-04-20T14:18:40.206Z,3.60
2023-04-20T14:21:06.855Z,3.40
2023-04-20T14:23:33.364Z,3.50
2023-04-20T14:26:00.365Z,3.60
2023-04-20T14:28:26.973Z,3.60
2023-04-20T14:30:53.943Z,3.90
2023-04-20T14:33:20.412Z,4.40
2023-04-20T14:35:46.896Z,2.90
2023-04-20T14:38:13.332Z,3.90
2023-04-20T14:40:39.833Z,4.80
2023-04-20T14:43:06.345Z,3.70
2023-04-20T14:45:32.889Z,3.30
2023-04-20T14:47:59.383Z,3.40
2023-04-20T14:50:28.894Z,3.90
2023-04-20T14:52:55.540Z,3.70
2023-04-20T14:55:24.058Z,3.80
2023-04-20T14:57:53.297Z,3.50
2023-04-20T15:00:20.144Z,3.90
2023-04-20T15:02:46.913Z,2.90
2023-04-20T15:05:13.660Z,4.40
2023-04-20T15:07:40.457Z,3.30
2023-04-20T15:10:07.364Z,6.70
2023-04-20T15:12:33.794Z,3.90
2023-04-20T15:15:00.380Z,5.80
2023-04-20T15:17:26.839Z,3.90
2023-04-20T15:19:53.307Z,3.20
2023-04-20T15:22:19.715Z,4.40
2023-04-20T15:24:46.340Z,4.90
2023-04-20T15:27:12.791Z,3.90
2023-04-20T15:29:39.410Z,3.10
2023-04-20T15:32:06.023Z,3.00
2023-04-20T15:34:32.553Z,3.60
2023-04-20T15:36:59.025Z,4.10
2023-04-20T15:39:25.571Z,4.00
2023-04-20T15:41:52.488Z,3.40
2023-04-20T15:44:19.071Z,3.40
2023-04-20T15:46:45.722Z,3.00
2023-04-20T15:49:12.125Z,3.10
2023-04-20T15:51:38.608Z,2.70
2023-04-20T15:54:05.298Z,2.60
2023-04-20T15:56:31.922Z,4.10
2023-04-20T15:58:58.561Z,4.30
2023-04-20T16:01:25.258Z,3.40
2023-04-20T16:03:52.233Z,4.00
2023-04-20T16:06:18.786Z,3.50
2023-04-20T16:08:46.832Z,3.50
2023-04-20T16:11:13.356Z,3.50
2023-04-20T16:13:40.026Z,3.80
2023-04-20T16:16:06.916Z,3.20
2023-04-20T16:18:33.511Z,2.80
2023-04-20T16:21:00.162Z,3.30
2023-04-20T16:23:26.972Z,2.60
2023-04-20T16:25:53.633Z,2.90
2023-04-20T16:28:20.164Z,2.60
2023-04-20T16:30:46.714Z,2.70
2023-04-20T16:33:13.836Z,3.00
2023-04-20T16:35:40.484Z,3.60
2023-04-20T16:38:10.726Z,3.90
2023-04-20T16:40:37.507Z,4.00
2023-04-20T16:43:06.385Z,2.30
2023-04-20T16:45:33.240Z,2.60
2023-04-20T16:48:00.025Z,2.60
2023-04-20T16:50:26.677Z,3.30
2023-04-20T16:52:53.697Z,3.70
2023-04-20T16:55:20.284Z,2.60
2023-04-20T16:57:46.814Z,2.80
2023-04-20T17:00:13.717Z,2.80
2023-04-20T17:02:40.532Z,3.10
2023-04-20T17:05:07.521Z,3.70
2023-04-20T17:07:35.694Z,3.80
2023-04-20T17:10:02.347Z,11.60
2023-04-20T17:12:28.843Z,29.60
2023-04-20T17:14:55.278Z,24.20
2023-04-20T17:17:22.141Z,17.40
2023-04-20T17:19:48.840Z,17.20
2023-04-20T17:22:15.960Z,12.70
2023-04-20T17:24:42.506Z,12.80
2023-04-20T17:27:08.960Z,11.70
2023-04-20T17:29:37.753Z,13.20
2023-04-20T17:32:04.829Z,11.70
2023-04-20T17:34:31.518Z,12.20
2023-04-20T17:36:58.057Z,12.20
2023-04-20T17:39:25.293Z,12.10
2023-04-20T17:41:51.759Z,13.10
2023-04-20T17:44:19.034Z,12.40
2023-04-20T17:46:46.238Z,13.70
2023-04-20T17:49:12.869Z,15.40
2023-04-20T17:51:41.773Z,19.30
2023-04-20T17:54:09.029Z,26.00
2023-04-20T17:56:35.551Z,37.60
2023-04-20T17:59:02.210Z,42.00
2023-04-20T18:01:30.020Z,44.70
2023-04-20T18:03:56.877Z,46.10
2023-04-20T18:06:23.607Z,33.50
2023-04-20T18:08:50.139Z,39.80
2023-04-20T18:11:16.617Z,34.10
2023-04-20T18:13:44.076Z,25.00
2023-04-20T18:16:10.654Z,23.40
2023-04-20T18:18:37.570Z,22.40
2023-04-20T18:21:04.149Z,22.50
2023-04-20T18:23:31.140Z,27.50
2023-04-20T18:25:57.598Z,26.90
2023-04-20T18:28:24.111Z,26.10
2023-04-20T18:30:50.603Z,27.20
2023-04-20T18:33:17.129Z,30.30
2023-04-20T18:35:44.092Z,30.80
2023-04-20T18:38:10.742Z,32.70
2023-04-20T18:40:37.265Z,33.50
2023-04-20T18:43:03.961Z,31.80
2023-04-20T18:45:30.529Z,30.00
2023-04-20T18:47:59.943Z,34.30
2023-04-20T18:50:26.453Z,40.30
2023-04-20T18:52:53.034Z,46.20
2023-04-20T18:55:19.771Z,50.50
2023-04-20T18:57:46.323Z,57.00
2023-04-20T19:00:13.683Z,58.80
2023-04-20T19:02:40.821Z,58.00
2023-04-20T19:05:07.763Z,52.80
2023-04-20T19:07:34.390Z,54.40
2023-04-20T19:10:00.795Z,57.10
2023-04-20T19:12:27.593Z,55.10
2023-04-20T19:14:54.000Z,51.10
2023-04-20T19:17:20.711Z,48.60
2023-04-20T19:19:50.208Z,37.10
2023-04-20T19:22:17.488Z,30.50
2023-04-20T19:24:44.084Z,25.90
2023-04-20T19:27:10.568Z,21.40
2023-04-20T19:29:37.151Z,24.40
2023-04-20T19:32:03.813Z,41.30
2023-04-20T19:34:30.335Z,52.80
2023-04-20T19:36:56.899Z,83.30
2023-04-20T19:39:23.485Z,125.10
2023-04-20T19:41:50.150Z,69.70
2023-04-20T19:44:17.212Z,43.70
2023-04-20T19:46:44.190Z,32.80
2023-04-20T19:49:11.070Z,31.60
2023-04-20T19:51:37.841Z,31.30
2023-04-20T19:54:04.529Z,36.40
2023-04-20T19:56:33.970Z,35.60
2023-04-20T19:59:00.644Z,35.00
2023-04-20T20:01:27.347Z,37.50
2023-04-20T20:03:54.064Z,38.00
2023-04-20T20:06:21.992Z,38.40
2023-04-20T20:08:48.684Z,37.70
2023-04-20T20:11:15.536Z,40.30
2023-04-20T20:13:42.218Z,42.00
2023-04-20T20:16:09.922Z,46.70
2023-04-20T20:18:36.696Z,43.90
2023-04-20T20:21:03.940Z,41.80
2023-04-20T20:23:30.461Z,42.40
2023-04-20T20:25:57.273Z,41.00
2023-04-20T20:28:23.717Z,40.40
2023-04-20T20:30:50.347Z,38.00
2023-04-20T20:33:16.902Z,36.40
2023-04-20T20:35:43.713Z,32.70
2023-04-20T20:38:10.425Z,29.30
2023-04-20T20:40:37.571Z,27.90
2023-04-20T20:43:04.449Z,27.30
2023-04-20T20:45:31.317Z,25.50
2023-04-20T20:47:58.438Z,24.50
2023-04-20T20:50:27.091Z,20.80
2023-04-20T20:52:53.747Z,21.20
2023-04-20T20:55:20.401Z,19.90
2023-04-20T20:57:47.087Z,18.40
2023-04-20T21:00:13.752Z,20.60
2023-04-20T21:02:40.586Z,18.80
2023-04-20T21:05:07.369Z,17.60
2023-04-20T21:07:36.348Z,16.80
2023-04-20T21:10:02.879Z,15.90
2023-04-20T21:12:29.474Z,17.10
2023-04-20T21:14:56.223Z,17.40
2023-04-20T21:17:22.798Z,18.00
2023-04-20T21:19:49.606Z,16.60
2023-04-20T21:22:16.340Z,18.30
2023-04-20T21:24:42.739Z,17.60
2023-04-20T21:27:09.306Z,15.50
2023-04-20T21:29:35.818Z,14.60
2023-04-20T21:32:02.607Z,13.60
2023-04-20T21:34:29.749Z,13.70
2023-04-20T21:37:02.959Z,13.80
2023-04-20T21:39:29.803Z,12.60
2023-04-20T21:41:56.883Z,13.30
2023-04-20T21:44:23.301Z,12.20
2023-04-20T21:46:50.159Z,10.90
2023-04-20T21:49:17.680Z,10.40
2023-04-20T21:51:44.575Z,10.40
2023-04-20T21:54:11.164Z,9.60
2023-04-20T21:56:37.673Z,10.50
2023-04-20T21:59:04.251Z,10.10
2023-04-20T22:01:30.776Z,10.10
2023-04-20T22:03:57.495Z,10.10
2023-04-20T22:06:24.127Z,9.60
2023-04-20T22:08:50.814Z,10.40
2023-04-20T22:11:17.375Z,8.70
2023-04-20T22:13:44.687Z,9.30
2023-04-20T22:16:11.140Z,8.90
2023-04-20T22:18:37.712Z,9.40
2023-04-20T22:21:04.278Z,8.80
2023-04-20T22:23:30.877Z,9.80
2023-04-20T22:25:57.478Z,10.60
2023-04-20T22:28:24.273Z,10.90
2023-04-20T22:30:50.839Z,9.90
2023-04-20T22:33:17.422Z,8.90
2023-04-20T22:35:44.021Z,9.10
2023-04-20T22:38:10.582Z,8.90
2023-04-20T22:40:40.116Z,9.40
2023-04-20T22:43:06.567Z,9.30
2023-04-20T22:45:33.010Z,9.60
2023-04-20T22:47:59.803Z,8.50
2023-04-20T22:50:26.402Z,9.00
2023-04-20T22:52:53.018Z,9.00
2023-04-20T22:55:19.958Z,9.50
2023-04-20T22:57:46.459Z,8.90
2023-04-20T23:00:13.979Z,9.40
2023-04-20T23:02:40.716Z,10.10
2023-04-20T23:05:07.558Z,10.00
2023-04-20T23:07:34.102Z,9.90
2023-04-20T23:10:00.808Z,10.00
2023-04-20T23:12:28.683Z,9.10
2023-04-20T23:14:55.958Z,9.70
2023-04-20T23:17:22.601Z,10.60
2023-04-20T23:19:50.169Z,10.70
2023-04-20T23:22:16.696Z,10.10
2023-04-20T23:24:43.256Z,9.60
2023-04-20T23:27:09.778Z,10.70
2023-04-20T23:29:36.343Z,10.00
2023-04-20T23:32:03.118Z,10.60
2023-04-20T23:34:29.877Z,10.80
2023-04-20T23:36:56.509Z,11.00
2023-04-20T23:39:23.328Z,11.50
2023-04-20T23:41:49.857Z,10.10
2023-04-20T23:44:16.419Z,10.30
2023-04-20T23:46:42.903Z,10.80
2023-04-20T23:49:09.368Z,10.90
2023-04-20T23:51:35.821Z,10.80
2023-04-20T23:54:02.820Z,11.00
2023-04-20T23:56:29.795Z,10.10
2023-04-20T23:58:56.283Z,10.40
